sensor_id;sensor_type;location;lat;lon;timestamp;pressure;altitude;pressure_sealevel;temperature;humidity
68758;BME280;55747;51.998;4.466;2023-02-22T00:00:22;56800.38;;;-144.48;100.00
68758;BME280;55747;51.998;4.466;2023-02-22T00:02:55;56763.16;;;-144.48;100.00
68758;BME280;55747;51.998;4.466;2023-02-22T00:05:25;56787.97;;;-144.48;100.00
68758;BME280;55747;51.998;4.466;2023-02-22T00:07:51;56754.91;;;-144.48;100.00
68758;BME280;55747;51.998;4.466;2023-02-22T00:10:17;56787.97;;;-144.48;100.00
68758;BME280;55747;51.998;4.466;2023-02-22T00:12:51;56777.63;;;-144.48;100.00
68758;BME280;55747;51.998;4.466;2023-02-22T00:15:20;56787.97;;;-144.48;100.00
68758;BME280;55747;51.998;4.466;2023-02-22T00:17:46;56750.75;;;-144.48;100.00
68758;BME280;55747;51.998;4.466;2023-02-22T00:20:13;56804.50;;;-144.48;100.00
68758;BME280;55747;51.998;4.466;2023-02-22T00:22:43;56767.31;;;-144.48;100.00
68758;BME280;55747;51.998;4.466;2023-02-22T00:25:15;56804.50;;;-144.48;100.00
68758;BME280;55747;51.998;4.466;2023-02-22T00:27:44;56773.50;;;-144.48;100.00
68758;BME280;55747;51.998;4.466;2023-02-22T00:30:18;56775.56;;;-144.48;100.00
68758;BME280;55747;51.998;4.466;2023-02-22T00:32:47;56769.38;;;-144.48;100.00
68758;BME280;55747;51.998;4.466;2023-02-22T00:35:19;56779.72;;;-144.48;100.00
68758;BME280;55747;51.998;4.466;2023-02-22T00:37:49;56794.19;;;-144.48;100.00
68758;BME280;55747;51.998;4.466;2023-02-22T00:40:18;56775.56;;;-144.48;100.00
68758;BME280;55747;51.998;4.466;2023-02-22T00:42:45;56816.91;;;-144.48;100.00
68758;BME280;55747;51.998;4.466;2023-02-22T00:45:12;56798.31;;;-144.48;100.00
68758;BME280;55747;51.998;4.466;2023-02-22T00:47:38;56800.38;;;-144.48;100.00
68758;BME280;55747;51.998;4.466;2023-02-22T00:50:03;56790.03;;;-144.48;100.00
68758;BME280;55747;51.998;4.466;2023-02-22T00:52:31;56769.38;;;-144.48;100.00
68758;BME280;55747;51.998;4.466;2023-02-22T00:54:57;56773.50;;;-144.48;100.00
68758;BME280;55747;51.998;4.466;2023-02-22T00:57:24;56802.44;;;-144.48;100.00
68758;BME280;55747;51.998;4.466;2023-02-22T00:59:50;56754.91;;;-144.48;100.00
68758;BME280;55747;51.998;4.466;2023-02-22T01:02:16;56792.09;;;-144.48;100.00
68758;BME280;55747;51.998;4.466;2023-02-22T01:04:42;56790.03;;;-144.48;100.00
68758;BME280;55747;51.998;4.466;2023-02-22T01:07:07;56756.97;;;-144.48;100.00
68758;BME280;55747;51.998;4.466;2023-02-22T01:09:33;56787.97;;;-144.48;100.00
68758;BME280;55747;51.998;4.466;2023-02-22T01:11:59;56769.38;;;-144.48;100.00
68758;BME280;55747;51.998;4.466;2023-02-22T01:14:26;56785.91;;;-144.48;100.00
68758;BME280;55747;51.998;4.466;2023-02-22T01:16:55;56812.78;;;-144.48;100.00
68758;BME280;55747;51.998;4.466;2023-02-22T01:19:21;56769.38;;;-144.48;100.00
68758;BME280;55747;51.998;4.466;2023-02-22T01:21:48;56802.44;;;-144.48;100.00
68758;BME280;55747;51.998;4.466;2023-02-22T01:24:15;56814.84;;;-144.48;100.00
68758;BME280;55747;51.998;4.466;2023-02-22T01:26:42;56779.72;;;-144.48;100.00
68758;BME280;55747;51.998;4.466;2023-02-22T01:29:11;56808.66;;;-144.48;100.00
68758;BME280;55747;51.998;4.466;2023-02-22T01:31:40;56792.09;;;-144.48;100.00
68758;BME280;55747;51.998;4.466;2023-02-22T01:34:05;56785.91;;;-144.48;100.00
68758;BME280;55747;51.998;4.466;2023-02-22T01:36:30;56798.31;;;-144.48;100.00
68758;BME280;55747;51.998;4.466;2023-02-22T01:38:57;56756.97;;;-144.48;100.00
68758;BME280;55747;51.998;4.466;2023-02-22T01:41:22;56798.31;;;-144.48;100.00
68758;BME280;55747;51.998;4.466;2023-02-22T01:43:47;56816.91;;;-144.48;100.00
68758;BME280;55747;51.998;4.466;2023-02-22T01:46:20;56777.63;;;-144.48;100.00
68758;BME280;55747;51.998;4.466;2023-02-22T01:49:04;56812.78;;;-144.48;100.00
68758;BME280;55747;51.998;4.466;2023-02-22T01:51:37;56810.72;;;-144.48;100.00
68758;BME280;55747;51.998;4.466;2023-02-22T01:54:10;56800.38;;;-144.48;100.00
68758;BME280;55747;51.998;4.466;2023-02-22T01:56:40;56777.63;;;-144.48;100.00
68758;BME280;55747;51.998;4.466;2023-02-22T01:59:11;56759.03;;;-144.48;100.00
68758;BME280;55747;51.998;4.466;2023-02-22T02:01:38;56798.31;;;-144.48;100.00
68758;BME280;55747;51.998;4.466;2023-02-22T02:04:11;56810.72;;;-144.48;100.00
68758;BME280;55747;51.998;4.466;2023-02-22T02:06:37;56808.66;;;-144.48;100.00
68758;BME280;55747;51.998;4.466;2023-02-22T02:09:25;56790.03;;;-144.48;100.00
68758;BME280;55747;51.998;4.466;2023-02-22T02:11:54;56812.78;;;-144.48;100.00
68758;BME280;55747;51.998;4.466;2023-02-22T02:14:21;56773.50;;;-144.48;100.00
68758;BME280;55747;51.998;4.466;2023-02-22T02:16:51;56796.25;;;-144.48;100.00
68758;BME280;55747;51.998;4.466;2023-02-22T02:33:28;56767.31;;;-144.48;100.00
68758;BME280;55747;51.998;4.466;2023-02-22T02:36:07;56787.97;;;-144.48;100.00
68758;BME280;55747;51.998;4.466;2023-02-22T02:38:41;56810.72;;;-144.48;100.00
68758;BME280;55747;51.998;4.466;2023-02-22T02:43:58;56787.97;;;-144.48;100.00
68758;BME280;55747;51.998;4.466;2023-02-22T02:46:31;56804.50;;;-144.48;100.00
68758;BME280;55747;51.998;4.466;2023-02-22T02:49:02;56775.56;;;-144.48;100.00
68758;BME280;55747;51.998;4.466;2023-02-22T02:51:31;56794.19;;;-144.48;100.00
68758;BME280;55747;51.998;4.466;2023-02-22T02:53:58;56787.97;;;-144.48;100.00
68758;BME280;55747;51.998;4.466;2023-02-22T02:56:26;56777.63;;;-144.48;100.00
68758;BME280;55747;51.998;4.466;2023-02-22T02:58:53;56812.78;;;-144.48;100.00
68758;BME280;55747;51.998;4.466;2023-02-22T03:01:34;56765.22;;;-144.48;100.00
68758;BME280;55747;51.998;4.466;2023-02-22T03:04:21;56765.22;;;-144.48;100.00
68758;BME280;55747;51.998;4.466;2023-02-22T03:07:04;56796.25;;;-144.48;100.00
68758;BME280;55747;51.998;4.466;2023-02-22T03:12:25;56763.16;;;-144.48;100.00
68758;BME280;55747;51.998;4.466;2023-02-22T03:17:50;56777.63;;;-144.48;100.00
68758;BME280;55747;51.998;4.466;2023-02-22T03:20:41;56810.72;;;-144.48;100.00
68758;BME280;55747;51.998;4.466;2023-02-22T03:25:49;56831.41;;;-144.48;100.00
68758;BME280;55747;51.998;4.466;2023-02-22T03:28:17;56794.19;;;-144.48;100.00
68758;BME280;55747;51.998;4.466;2023-02-22T03:31:00;56816.91;;;-144.48;100.00
68758;BME280;55747;51.998;4.466;2023-02-22T03:33:41;56800.38;;;-144.48;100.00
68758;BME280;55747;51.998;4.466;2023-02-22T03:36:17;56796.25;;;-144.48;100.00
68758;BME280;55747;51.998;4.466;2023-02-22T03:38:52;56802.44;;;-144.48;100.00
68758;BME280;55747;51.998;4.466;2023-02-22T03:41:22;56781.78;;;-144.48;100.00
68758;BME280;55747;51.998;4.466;2023-02-22T03:43:53;56792.09;;;-144.48;100.00
68758;BME280;55747;51.998;4.466;2023-02-22T03:46:20;56759.03;;;-144.48;100.00
68758;BME280;55747;51.998;4.466;2023-02-22T03:48:52;56752.81;;;-144.48;100.00
68758;BME280;55747;51.998;4.466;2023-02-22T03:51:22;56810.72;;;-144.48;100.00
68758;BME280;55747;51.998;4.466;2023-02-22T03:53:48;56783.84;;;-144.48;100.00
68758;BME280;55747;51.998;4.466;2023-02-22T03:56:23;56781.78;;;-144.48;100.00
68758;BME280;55747;51.998;4.466;2023-02-22T03:58:49;56792.09;;;-144.48;100.00
68758;BME280;55747;51.998;4.466;2023-02-22T04:01:16;56740.41;;;-144.48;100.00
68758;BME280;55747;51.998;4.466;2023-02-22T04:03:41;56773.50;;;-144.48;100.00
68758;BME280;55747;51.998;4.466;2023-02-22T04:06:07;56802.44;;;-144.48;100.00
68758;BME280;55747;51.998;4.466;2023-02-22T04:08:34;56783.84;;;-144.48;100.00
68758;BME280;55747;51.998;4.466;2023-02-22T04:10:59;56765.22;;;-144.48;100.00
68758;BME280;55747;51.998;4.466;2023-02-22T04:13:25;56779.72;;;-144.48;100.00
68758;BME280;55747;51.998;4.466;2023-02-22T04:15:51;56777.63;;;-144.48;100.00
68758;BME280;55747;51.998;4.466;2023-02-22T04:18:17;56854.13;;;-144.48;100.00
68758;BME280;55747;51.998;4.466;2023-02-22T04:20:42;56810.72;;;-144.48;100.00
68758;BME280;55747;51.998;4.466;2023-02-22T04:23:09;56794.19;;;-144.48;100.00
68758;BME280;55747;51.998;4.466;2023-02-22T04:25:34;56787.97;;;-144.48;100.00
68758;BME280;55747;51.998;4.466;2023-02-22T04:28:03;56771.44;;;-144.48;100.00
68758;BME280;55747;51.998;4.466;2023-02-22T04:30:28;56790.03;;;-144.48;100.00
68758;BME280;55747;51.998;4.466;2023-02-22T04:32:55;56802.44;;;-144.48;100.00
68758;BME280;55747;51.998;4.466;2023-02-22T04:35:21;56792.09;;;-144.48;100.00
68758;BME280;55747;51.998;4.466;2023-02-22T04:37:46;56800.38;;;-144.48;100.00
68758;BME280;55747;51.998;4.466;2023-02-22T04:40:12;56779.72;;;-144.48;100.00
68758;BME280;55747;51.998;4.466;2023-02-22T04:42:40;56808.66;;;-144.48;100.00
68758;BME280;55747;51.998;4.466;2023-02-22T04:45:07;56767.31;;;-144.48;100.00
68758;BME280;55747;51.998;4.466;2023-02-22T04:47:34;56792.09;;;-144.48;100.00
68758;BME280;55747;51.998;4.466;2023-02-22T04:50:03;56785.91;;;-144.48;100.00
68758;BME280;55747;51.998;4.466;2023-02-22T04:52:31;56785.91;;;-144.48;100.00
68758;BME280;55747;51.998;4.466;2023-02-22T04:54:57;56771.44;;;-144.48;100.00
68758;BME280;55747;51.998;4.466;2023-02-22T04:57:22;56800.38;;;-144.48;100.00
68758;BME280;55747;51.998;4.466;2023-02-22T04:59:48;56787.97;;;-144.48;100.00
68758;BME280;55747;51.998;4.466;2023-02-22T05:02:15;56819.00;;;-144.48;100.00
68758;BME280;55747;51.998;4.466;2023-02-22T05:04:41;56804.50;;;-144.48;100.00
68758;BME280;55747;51.998;4.466;2023-02-22T05:07:07;56777.63;;;-144.48;100.00
68758;BME280;55747;51.998;4.466;2023-02-22T05:09:32;56790.03;;;-144.48;100.00
68758;BME280;55747;51.998;4.466;2023-02-22T05:11:57;56794.19;;;-144.48;100.00
68758;BME280;55747;51.998;4.466;2023-02-22T05:14:25;56775.56;;;-144.48;100.00
68758;BME280;55747;51.998;4.466;2023-02-22T05:16:54;56812.78;;;-144.48;100.00
68758;BME280;55747;51.998;4.466;2023-02-22T05:19:20;56810.72;;;-144.48;100.00
68758;BME280;55747;51.998;4.466;2023-02-22T05:21:46;56769.38;;;-144.48;100.00
68758;BME280;55747;51.998;4.466;2023-02-22T05:24:11;56790.03;;;-144.48;100.00
68758;BME280;55747;51.998;4.466;2023-02-22T05:26:36;56794.19;;;-144.48;100.00
68758;BME280;55747;51.998;4.466;2023-02-22T05:29:02;56823.13;;;-144.48;100.00
68758;BME280;55747;51.998;4.466;2023-02-22T05:31:27;56814.84;;;-144.48;100.00
68758;BME280;55747;51.998;4.466;2023-02-22T05:33:53;56804.50;;;-144.48;100.00
68758;BME280;55747;51.998;4.466;2023-02-22T05:36:20;56825.19;;;-144.48;100.00
68758;BME280;55747;51.998;4.466;2023-02-22T05:38:46;56777.63;;;-144.48;100.00
68758;BME280;55747;51.998;4.466;2023-02-22T05:41:12;56798.31;;;-144.48;100.00
68758;BME280;55747;51.998;4.466;2023-02-22T05:43:38;56771.44;;;-144.48;100.00
68758;BME280;55747;51.998;4.466;2023-02-22T05:46:04;56794.19;;;-144.48;100.00
68758;BME280;55747;51.998;4.466;2023-02-22T05:48:30;56796.25;;;-144.48;100.00
68758;BME280;55747;51.998;4.466;2023-02-22T05:50:56;56781.78;;;-144.48;100.00
68758;BME280;55747;51.998;4.466;2023-02-22T05:53:22;56794.19;;;-144.48;100.00
68758;BME280;55747;51.998;4.466;2023-02-22T05:55:48;56798.31;;;-144.48;100.00
68758;BME280;55747;51.998;4.466;2023-02-22T05:58:14;56845.88;;;-144.48;100.00
68758;BME280;55747;51.998;4.466;2023-02-22T06:00:41;56785.91;;;-144.48;100.00
68758;BME280;55747;51.998;4.466;2023-02-22T06:03:09;56783.84;;;-144.48;100.00
68758;BME280;55747;51.998;4.466;2023-02-22T06:05:35;56804.50;;;-144.48;100.00
68758;BME280;55747;51.998;4.466;2023-02-22T06:08:02;56829.31;;;-144.48;100.00
68758;BME280;55747;51.998;4.466;2023-02-22T06:10:28;56810.72;;;-144.48;100.00
68758;BME280;55747;51.998;4.466;2023-02-22T06:12:55;56827.25;;;-144.48;100.00
68758;BME280;55747;51.998;4.466;2023-02-22T06:15:22;56812.78;;;-144.48;100.00
68758;BME280;55747;51.998;4.466;2023-02-22T06:17:48;56787.97;;;-144.48;100.00
68758;BME280;55747;51.998;4.466;2023-02-22T06:20:16;56806.59;;;-144.48;100.00
68758;BME280;55747;51.998;4.466;2023-02-22T06:22:42;56808.66;;;-144.48;100.00
68758;BME280;55747;51.998;4.466;2023-02-22T06:25:11;56752.81;;;-144.48;100.00
68758;BME280;55747;51.998;4.466;2023-02-22T06:27:38;56798.31;;;-144.48;100.00
68758;BME280;55747;51.998;4.466;2023-02-22T06:30:04;56761.09;;;-144.48;100.00
68758;BME280;55747;51.998;4.466;2023-02-22T06:32:30;56794.19;;;-144.48;100.00
68758;BME280;55747;51.998;4.466;2023-02-22T06:34:55;56742.50;;;-144.48;100.00
68758;BME280;55747;51.998;4.466;2023-02-22T06:37:21;56773.50;;;-144.48;100.00
68758;BME280;55747;51.998;4.466;2023-02-22T06:39:46;56792.09;;;-144.48;100.00
68758;BME280;55747;51.998;4.466;2023-02-22T06:42:12;56781.78;;;-144.48;100.00
68758;BME280;55747;51.998;4.466;2023-02-22T06:44:37;56785.91;;;-144.48;100.00
68758;BME280;55747;51.998;4.466;2023-02-22T06:47:03;56750.75;;;-144.48;100.00
68758;BME280;55747;51.998;4.466;2023-02-22T06:49:28;56767.31;;;-144.48;100.00
68758;BME280;55747;51.998;4.466;2023-02-22T06:51:54;56781.78;;;-144.48;100.00
68758;BME280;55747;51.998;4.466;2023-02-22T06:54:22;56814.84;;;-144.48;100.00
68758;BME280;55747;51.998;4.466;2023-02-22T06:56:47;56802.44;;;-144.48;100.00
68758;BME280;55747;51.998;4.466;2023-02-22T06:59:16;56798.31;;;-144.48;100.00
68758;BME280;55747;51.998;4.466;2023-02-22T07:01:41;56812.78;;;-144.48;100.00
68758;BME280;55747;51.998;4.466;2023-02-22T07:04:07;56790.03;;;-144.48;100.00
68758;BME280;55747;51.998;4.466;2023-02-22T07:06:33;56775.56;;;-144.48;100.00
68758;BME280;55747;51.998;4.466;2023-02-22T07:08:58;56798.31;;;-144.48;100.00
68758;BME280;55747;51.998;4.466;2023-02-22T07:11:27;56808.66;;;-144.48;100.00
68758;BME280;55747;51.998;4.466;2023-02-22T07:13:55;56790.03;;;-144.48;100.00
68758;BME280;55747;51.998;4.466;2023-02-22T07:16:21;56814.84;;;-144.48;100.00
68758;BME280;55747;51.998;4.466;2023-02-22T07:18:46;56785.91;;;-144.48;100.00
68758;BME280;55747;51.998;4.466;2023-02-22T07:21:12;56759.03;;;-144.48;100.00
68758;BME280;55747;51.998;4.466;2023-02-22T07:23:37;56773.50;;;-144.48;100.00
68758;BME280;55747;51.998;4.466;2023-02-22T07:26:03;56806.59;;;-144.48;100.00
68758;BME280;55747;51.998;4.466;2023-02-22T07:28:32;56771.44;;;-144.48;100.00
68758;BME280;55747;51.998;4.466;2023-02-22T07:30:57;56800.38;;;-144.48;100.00
68758;BME280;55747;51.998;4.466;2023-02-22T07:33:23;56738.34;;;-144.48;100.00
68758;BME280;55747;51.998;4.466;2023-02-22T07:35:51;56808.66;;;-144.48;100.00
68758;BME280;55747;51.998;4.466;2023-02-22T07:38:17;56765.22;;;-144.48;100.00
68758;BME280;55747;51.998;4.466;2023-02-22T07:40:44;56814.84;;;-144.48;100.00
68758;BME280;55747;51.998;4.466;2023-02-22T07:43:18;56771.44;;;-144.48;100.00
68758;BME280;55747;51.998;4.466;2023-02-22T07:45:48;56804.50;;;-144.48;100.00
68758;BME280;55747;51.998;4.466;2023-02-22T07:48:17;56792.09;;;-144.48;100.00
68758;BME280;55747;51.998;4.466;2023-02-22T07:50:46;56771.44;;;-144.48;100.00
68758;BME280;55747;51.998;4.466;2023-02-22T07:53:16;56769.38;;;-144.48;100.00
68758;BME280;55747;51.998;4.466;2023-02-22T07:55:45;56808.66;;;-144.48;100.00
68758;BME280;55747;51.998;4.466;2023-02-22T07:58:23;56773.50;;;-144.48;100.00
68758;BME280;55747;51.998;4.466;2023-02-22T08:00:51;56785.91;;;-144.48;100.00
68758;BME280;55747;51.998;4.466;2023-02-22T08:03:24;56777.63;;;-144.48;100.00
68758;BME280;55747;51.998;4.466;2023-02-22T08:06:16;56800.38;;;-144.48;100.00
68758;BME280;55747;51.998;4.466;2023-02-22T08:11:55;56769.38;;;-144.48;100.00
68758;BME280;55747;51.998;4.466;2023-02-22T08:14:51;56792.09;;;-144.48;100.00
68758;BME280;55747;51.998;4.466;2023-02-22T08:20:49;56790.03;;;-144.48;100.00
68758;BME280;55747;51.998;4.466;2023-02-22T08:27:14;56783.84;;;-144.48;100.00
68758;BME280;55747;51.998;4.466;2023-02-22T08:29:56;56792.09;;;-144.48;100.00
68758;BME280;55747;51.998;4.466;2023-02-22T08:32:40;56744.56;;;-144.48;100.00
68758;BME280;55747;51.998;4.466;2023-02-22T08:35:18;56810.72;;;-144.48;100.00
68758;BME280;55747;51.998;4.466;2023-02-22T08:37:51;56767.31;;;-144.48;100.00
68758;BME280;55747;51.998;4.466;2023-02-22T08:42:45;56785.91;;;-144.48;100.00
68758;BME280;55747;51.998;4.466;2023-02-22T08:45:14;56775.56;;;-144.48;100.00
68758;BME280;55747;51.998;4.466;2023-02-22T08:51:25;56806.59;;;-144.48;100.00
68758;BME280;55747;51.998;4.466;2023-02-22T08:54:09;56787.97;;;-144.48;100.00
68758;BME280;55747;51.998;4.466;2023-02-22T08:56:46;56756.97;;;-144.48;100.00
68758;BME280;55747;51.998;4.466;2023-02-22T08:59:18;56785.91;;;-144.48;100.00
68758;BME280;55747;51.998;4.466;2023-02-22T09:04:40;56785.91;;;-144.48;100.00
68758;BME280;55747;51.998;4.466;2023-02-22T09:07:12;56752.81;;;-144.48;100.00
68758;BME280;55747;51.998;4.466;2023-02-22T09:09:38;56790.03;;;-144.48;100.00
68758;BME280;55747;51.998;4.466;2023-02-22T09:15:52;56777.63;;;-144.48;100.00
68758;BME280;55747;51.998;4.466;2023-02-22T09:18:26;56785.91;;;-144.48;100.00
68758;BME280;55747;51.998;4.466;2023-02-22T09:20:57;56785.91;;;-144.48;100.00
68758;BME280;55747;51.998;4.466;2023-02-22T09:23:26;56781.78;;;-144.48;100.00
68758;BME280;55747;51.998;4.466;2023-02-22T09:26:19;56777.63;;;-144.48;100.00
68758;BME280;55747;51.998;4.466;2023-02-22T09:56:25;56763.16;;;-144.48;100.00
68758;BME280;55747;51.998;4.466;2023-02-22T09:58:58;56806.59;;;-144.48;100.00
68758;BME280;55747;51.998;4.466;2023-02-22T10:01:44;56759.03;;;-144.48;100.00
68758;BME280;55747;51.998;4.466;2023-02-22T10:07:33;56785.91;;;-144.48;100.00
68758;BME280;55747;51.998;4.466;2023-02-22T10:10:16;56765.22;;;-144.48;100.00
68758;BME280;55747;51.998;4.466;2023-02-22T10:16:56;56748.69;;;-144.48;100.00
68758;BME280;55747;51.998;4.466;2023-02-22T10:32:45;56771.44;;;-144.48;100.00
68758;BME280;55747;51.998;4.466;2023-02-22T10:38:28;56759.03;;;-144.48;100.00
68758;BME280;55747;51.998;4.466;2023-02-22T10:41:36;56808.66;;;-144.48;100.00
68758;BME280;55747;51.998;4.466;2023-02-22T10:44:29;56787.97;;;-144.48;100.00
68758;BME280;55747;51.998;4.466;2023-02-22T10:47:29;56732.16;;;-144.48;100.00
68758;BME280;55747;51.998;4.466;2023-02-22T10:50:28;56763.16;;;-144.48;100.00
68758;BME280;55747;51.998;4.466;2023-02-22T10:53:23;56787.97;;;-144.48;100.00
68758;BME280;55747;51.998;4.466;2023-02-22T10:56:30;56769.38;;;-144.48;100.00
68758;BME280;55747;51.998;4.466;2023-02-22T11:05:24;56775.56;;;-144.48;100.00
68758;BME280;55747;51.998;4.466;2023-02-22T11:11:32;56765.22;;;-144.48;100.00
68758;BME280;55747;51.998;4.466;2023-02-22T11:14:40;56734.22;;;-144.48;100.00
68758;BME280;55747;51.998;4.466;2023-02-22T11:17:56;56732.16;;;-144.48;100.00
68758;BME280;55747;51.998;4.466;2023-02-22T11:21:28;56763.16;;;-144.48;99.91
68758;BME280;55747;51.998;4.466;2023-02-22T11:29:53;56810.72;;;-144.48;97.99
68758;BME280;55747;51.998;4.466;2023-02-22T11:35:57;56773.50;;;-144.48;97.59
68758;BME280;55747;51.998;4.466;2023-02-22T11:49:13;56781.78;;;-144.48;96.44
68758;BME280;55747;51.998;4.466;2023-02-22T11:52:13;56744.56;;;-144.48;95.67
68758;BME280;55747;51.998;4.466;2023-02-22T11:55:37;56769.38;;;-144.48;95.51
68758;BME280;55747;51.998;4.466;2023-02-22T12:11:41;56734.22;;;-144.48;93.77
68758;BME280;55747;51.998;4.466;2023-02-22T12:14:28;56736.28;;;-144.48;95.30
68758;BME280;55747;51.998;4.466;2023-02-22T12:17:11;56719.75;;;-144.48;96.13
68758;BME280;55747;51.998;4.466;2023-02-22T12:19:42;56773.50;;;-144.48;95.54
68758;BME280;55747;51.998;4.466;2023-02-22T12:22:20;56763.16;;;-144.48;96.40
68758;BME280;55747;51.998;4.466;2023-02-22T12:24:57;56775.56;;;-144.48;95.89
68758;BME280;55747;51.998;4.466;2023-02-22T12:27:30;56721.81;;;-144.48;94.60
68758;BME280;55747;51.998;4.466;2023-02-22T12:30:06;56763.16;;;-144.48;94.39
68758;BME280;55747;51.998;4.466;2023-02-22T12:32:45;56715.59;;;-144.48;93.94
68758;BME280;55747;51.998;4.466;2023-02-22T12:35:22;56759.03;;;-144.48;93.73
68758;BME280;55747;51.998;4.466;2023-02-22T12:38:23;56734.22;;;-144.48;94.26
68758;BME280;55747;51.998;4.466;2023-02-22T12:41:02;56725.94;;;-144.48;94.55
68758;BME280;55747;51.998;4.466;2023-02-22T12:46:09;56775.56;;;-144.48;96.00
68758;BME280;55747;51.998;4.466;2023-02-22T12:54:14;56744.56;;;-144.48;96.92
68758;BME280;55747;51.998;4.466;2023-02-22T12:56:57;56756.97;;;-144.48;97.55
68758;BME280;55747;51.998;4.466;2023-02-22T12:59:36;56738.34;;;-144.48;96.31
68758;BME280;55747;51.998;4.466;2023-02-22T13:02:33;56748.69;;;-144.48;96.96
68758;BME280;55747;51.998;4.466;2023-02-22T13:05:04;56730.09;;;-144.48;96.17
68758;BME280;55747;51.998;4.466;2023-02-22T13:18:44;56756.97;;;-144.48;96.87
68758;BME280;55747;51.998;4.466;2023-02-22T13:21:19;56734.22;;;-144.48;97.40
68758;BME280;55747;51.998;4.466;2023-02-22T13:23:56;56761.09;;;-144.48;96.62
68758;BME280;55747;51.998;4.466;2023-02-22T13:26:47;56748.69;;;-144.48;95.87
68758;BME280;55747;51.998;4.466;2023-02-22T13:29:29;56746.63;;;-144.48;97.66
68758;BME280;55747;51.998;4.466;2023-02-22T13:48:34;56744.56;;;-144.48;97.00
68758;BME280;55747;51.998;4.466;2023-02-22T13:54:55;56738.34;;;-144.48;96.59
68758;BME280;55747;51.998;4.466;2023-02-22T13:57:26;56765.22;;;-144.48;97.86
68758;BME280;55747;51.998;4.466;2023-02-22T14:00:18;56756.97;;;-144.48;96.93
68758;BME280;55747;51.998;4.466;2023-02-22T14:03:04;56769.38;;;-144.48;98.04
68758;BME280;55747;51.998;4.466;2023-02-22T14:10:53;56738.34;;;-144.48;96.95
68758;BME280;55747;51.998;4.466;2023-02-22T14:16:27;56742.50;;;-144.48;98.64
68758;BME280;55747;51.998;4.466;2023-02-22T14:21:36;56765.22;;;-144.48;99.50
68758;BME280;55747;51.998;4.466;2023-02-22T14:24:15;56761.09;;;-144.48;100.00
68758;BME280;55747;51.998;4.466;2023-02-22T14:26:53;56752.81;;;-144.48;100.00
68758;BME280;55747;51.998;4.466;2023-02-22T14:29:30;56773.50;;;-144.48;100.00
68758;BME280;55747;51.998;4.466;2023-02-22T14:32:06;56752.81;;;-144.48;100.00
68758;BME280;55747;51.998;4.466;2023-02-22T14:34:56;56738.34;;;-144.48;100.00
68758;BME280;55747;51.998;4.466;2023-02-22T14:37:29;56736.28;;;-144.48;100.00
68758;BME280;55747;51.998;4.466;2023-02-22T14:40:00;56752.81;;;-144.48;100.00
68758;BME280;55747;51.998;4.466;2023-02-22T14:45:25;56767.31;;;-144.48;100.00
68758;BME280;55747;51.998;4.466;2023-02-22T14:48:12;56779.72;;;-144.48;100.00
68758;BME280;55747;51.998;4.466;2023-02-22T14:50:47;56742.50;;;-144.48;100.00
68758;BME280;55747;51.998;4.466;2023-02-22T14:53:39;56736.28;;;-144.48;100.00
68758;BME280;55747;51.998;4.466;2023-02-22T14:56:22;56728.00;;;-144.48;100.00
68758;BME280;55747;51.998;4.466;2023-02-22T14:58:57;56765.22;;;-144.48;100.00
68758;BME280;55747;51.998;4.466;2023-02-22T15:01:34;56769.38;;;-144.48;100.00
68758;BME280;55747;51.998;4.466;2023-02-22T15:06:51;56767.31;;;-144.48;100.00
68758;BME280;55747;51.998;4.466;2023-02-22T15:09:31;56792.09;;;-144.48;100.00
68758;BME280;55747;51.998;4.466;2023-02-22T15:14:36;56728.00;;;-144.48;100.00
68758;BME280;55747;51.998;4.466;2023-02-22T15:17:23;56717.69;;;-144.48;100.00
68758;BME280;55747;51.998;4.466;2023-02-22T15:19:57;56777.63;;;-144.48;100.00
68758;BME280;55747;51.998;4.466;2023-02-22T15:22:29;56767.31;;;-144.48;100.00
68758;BME280;55747;51.998;4.466;2023-02-22T15:25:05;56752.81;;;-144.48;100.00
68758;BME280;55747;51.998;4.466;2023-02-22T15:27:33;56767.31;;;-144.48;100.00
68758;BME280;55747;51.998;4.466;2023-02-22T15:30:24;56742.50;;;-144.48;100.00
68758;BME280;55747;51.998;4.466;2023-02-22T15:32:54;56728.00;;;-144.48;100.00
68758;BME280;55747;51.998;4.466;2023-02-22T15:35:27;56748.69;;;-144.48;100.00
68758;BME280;55747;51.998;4.466;2023-02-22T15:38:00;56732.16;;;-144.48;100.00
68758;BME280;55747;51.998;4.466;2023-02-22T15:40:30;56736.28;;;-144.48;100.00
68758;BME280;55747;51.998;4.466;2023-02-22T15:43:03;56759.03;;;-144.48;100.00
68758;BME280;55747;51.998;4.466;2023-02-22T15:45:33;56798.31;;;-144.48;100.00
68758;BME280;55747;51.998;4.466;2023-02-22T15:48:03;56767.31;;;-144.48;100.00
68758;BME280;55747;51.998;4.466;2023-02-22T15:51:10;56754.91;;;-144.48;100.00
68758;BME280;55747;51.998;4.466;2023-02-22T15:53:45;56754.91;;;-144.48;100.00
68758;BME280;55747;51.998;4.466;2023-02-22T15:56:18;56759.03;;;-144.48;100.00
68758;BME280;55747;51.998;4.466;2023-02-22T15:58:49;56769.38;;;-144.48;100.00
68758;BME280;55747;51.998;4.466;2023-02-22T16:01:16;56746.63;;;-144.48;100.00
68758;BME280;55747;51.998;4.466;2023-02-22T16:03:50;56790.03;;;-144.48;100.00
68758;BME280;55747;51.998;4.466;2023-02-22T16:06:23;56775.56;;;-144.48;100.00
68758;BME280;55747;51.998;4.466;2023-02-22T16:08:53;56748.69;;;-144.48;100.00
68758;BME280;55747;51.998;4.466;2023-02-22T16:11:26;56759.03;;;-144.48;100.00
68758;BME280;55747;51.998;4.466;2023-02-22T16:14:04;56730.09;;;-144.48;100.00
68758;BME280;55747;51.998;4.466;2023-02-22T16:16:35;56740.41;;;-144.48;100.00
68758;BME280;55747;51.998;4.466;2023-02-22T16:27:59;56734.22;;;-144.48;100.00